Time;durP1;ratioP1;P1;durP2;ratioP2;P2;SDS_P1;SDS_P2;PMS_P1;PMS_P2;Temp;Humidity;BMP_temperature;BMP_pressure;BME280_temperature;BME280_humidity;BME280_pressure;Samples;Min_cycle;Max_cycle;Signal;HPM_P1;HPM_P2
2022/10/13 00:00:36;;;;;;;32.10;21.48;;;;;;;9.39;100.00;101834.16;5034602;28;20148;-58
2022/10/13 00:03:02;;;;;;;29.77;19.83;;;;;;;9.40;100.00;101836.66;5034175;28;20049;-58
2022/10/13 00:05:28;;;;;;;28.98;19.85;;;;;;;9.40;100.00;101827.53;5034354;28;20025;-58
2022/10/13 00:07:54;;;;;;;30.38;20.85;;;;;;;9.41;100.00;101824.50;5034867;28;20072;-58
2022/10/13 00:10:19;;;;;;;28.95;19.98;;;;;;;9.42;100.00;101826.16;5034248;28;20057;-58
2022/10/13 00:12:45;;;;;;;31.80;20.95;;;;;;;9.42;100.00;101819.78;5034161;28;20040;-58
2022/10/13 00:15:10;;;;;;;29.85;20.63;;;;;;;9.43;100.00;101827.81;5034484;28;20049;-59
2022/10/13 00:17:35;;;;;;;30.33;20.63;;;;;;;9.43;100.00;101814.00;5034692;28;20365;-58
2022/10/13 00:20:03;;;;;;;32.58;20.30;;;;;;;9.46;100.00;101812.63;5034429;28;20033;-58
2022/10/13 00:22:28;;;;;;;32.15;21.35;;;;;;;9.47;100.00;101817.88;5034252;28;20362;-59
2022/10/13 00:24:55;;;;;;;30.10;20.58;;;;;;;9.47;100.00;101797.72;5034041;28;20039;-58
2022/10/13 00:27:20;;;;;;;30.75;21.20;;;;;;;9.49;100.00;101810.13;5034092;28;20029;-58
2022/10/13 00:29:45;;;;;;;31.23;21.48;;;;;;;9.48;100.00;101814.00;5033011;28;20103;-58
2022/10/13 00:32:11;;;;;;;29.88;21.48;;;;;;;9.50;100.00;101800.75;5033495;28;20044;-59
2022/10/13 00:34:37;;;;;;;33.10;21.30;;;;;;;9.53;100.00;101802.13;5034075;28;20446;-58
2022/10/13 00:37:03;;;;;;;31.10;20.65;;;;;;;9.55;100.00;101805.44;5033650;28;20044;-57
2022/10/13 00:39:28;;;;;;;28.55;19.42;;;;;;;9.54;100.00;101798.25;5033702;28;20113;-61
2022/10/13 00:41:54;;;;;;;30.58;20.38;;;;;;;9.55;100.00;101804.59;5033702;28;20105;-61
2022/10/13 00:44:57;;;;;;;30.95;20.83;;;;;;;9.53;100.00;101793.84;5033227;28;20049;-61
2022/10/13 00:47:24;;;;;;;29.90;21.15;;;;;;;9.51;100.00;101805.19;5033602;28;20037;-61
2022/10/13 00:49:51;;;;;;;30.73;20.60;;;;;;;9.46;100.00;101793.28;5033685;28;20047;-61
2022/10/13 00:52:19;;;;;;;30.88;20.85;;;;;;;9.45;100.00;101786.09;5032670;28;20345;-62
2022/10/13 00:54:45;;;;;;;28.70;20.65;;;;;;;9.52;100.00;101801.31;5033283;28;20040;-62
2022/10/13 00:57:11;;;;;;;31.25;21.42;;;;;;;9.51;100.00;101796.88;5033532;28;20112;-61
2022/10/13 00:59:38;;;;;;;31.15;20.83;;;;;;;9.52;100.00;101800.47;5033454;28;20116;-60
2022/10/13 01:02:03;;;;;;;28.80;20.98;;;;;;;9.50;100.00;101800.75;5033622;28;20366;-60
2022/10/13 01:04:36;;;;;;;29.95;21.95;;;;;;;9.51;100.00;101791.38;5033595;28;20029;-59
2022/10/13 01:07:02;;;;;;;31.65;21.13;;;;;;;9.51;100.00;101802.41;5033791;28;20092;-59
2022/10/13 01:09:34;;;;;;;31.65;21.02;;;;;;;9.50;100.00;101798.00;5032616;28;20030;-58
2022/10/13 01:12:22;;;;;;;30.17;20.83;;;;;;;9.49;100.00;101788.03;5033533;28;20052;-59
2022/10/13 01:14:55;;;;;;;33.03;20.55;;;;;;;9.49;100.00;101799.09;5033652;28;20038;-59
2022/10/13 01:17:37;;;;;;;30.10;20.88;;;;;;;9.49;100.00;101790.81;5033536;28;20033;-58
2022/10/13 01:20:23;;;;;;;29.45;20.73;;;;;;;9.48;100.00;101802.94;5033102;28;20026;-59
2022/10/13 01:22:48;;;;;;;28.20;21.15;;;;;;;9.48;100.00;101786.38;5032847;28;20052;-59
2022/10/13 01:25:45;;;;;;;30.92;21.25;;;;;;;9.51;100.00;101802.41;5032952;28;20462;-59
2022/10/13 01:28:49;;;;;;;31.13;20.83;;;;;;;9.46;100.00;101776.72;5031358;28;20474;-58
2022/10/13 01:31:40;;;;;;;30.92;20.25;;;;;;;9.55;100.00;101788.03;5032514;28;20481;-58
2022/10/13 01:34:45;;;;;;;31.55;20.77;;;;;;;9.54;100.00;101789.16;5032751;28;20024;-58
2022/10/13 01:37:27;;;;;;;30.30;20.23;;;;;;;9.52;100.00;101781.13;5032724;28;20566;-60
2022/10/13 01:40:01;;;;;;;30.70;21.17;;;;;;;9.56;100.00;101782.25;5032576;28;20434;-58
2022/10/13 01:42:32;;;;;;;;;;;;;;;9.65;100.00;101790.78;5032790;28;20065;-58
2022/10/13 01:45:01;;;;;;;28.30;20.27;;;;;;;9.57;100.00;101783.91;5032128;28;19924;-59
2022/10/13 01:47:30;;;;;;;30.67;20.25;;;;;;;9.58;100.00;101773.69;5032563;28;20104;-59
2022/10/13 01:49:57;;;;;;;33.05;20.83;;;;;;;9.63;100.00;101782.78;5032410;28;20377;-58
2022/10/13 01:52:30;;;;;;;31.35;20.10;;;;;;;9.67;100.00;101785.81;5032362;28;20025;-58
2022/10/13 01:54:56;;;;;;;32.42;20.55;;;;;;;9.71;100.00;101783.34;5032559;28;20087;-58
2022/10/13 01:57:32;;;;;;;31.67;20.63;;;;;;;9.73;100.00;101779.19;5032291;28;20026;-58
2022/10/13 02:00:00;;;;;;;32.22;21.65;;;;;;;9.75;100.00;101771.44;5032548;28;20037;-58
2022/10/13 02:02:38;;;;;;;30.35;20.50;;;;;;;9.79;100.00;101774.47;5032246;28;20095;-58
2022/10/13 02:05:16;;;;;;;32.22;20.35;;;;;;;9.82;100.00;101769.22;5031631;28;20022;-59
2022/10/13 02:07:48;;;;;;;29.80;20.67;;;;;;;9.79;100.00;101755.97;5032253;28;20048;-59
2022/10/13 02:10:16;;;;;;;32.30;21.00;;;;;;;9.90;100.00;101761.50;5032022;28;20036;-59
2022/10/13 02:12:59;;;;;;;29.65;19.88;;;;;;;9.93;100.00;101756.25;5032103;28;20056;-58
2022/10/13 02:15:32;;;;;;;30.65;20.85;;;;;;;9.95;100.00;101754.03;5031888;28;20025;-59
2022/10/13 02:17:59;;;;;;;29.10;21.08;;;;;;;9.95;100.00;101748.50;5032401;28;20026;-58
2022/10/13 02:20:25;;;;;;;30.55;19.67;;;;;;;10.04;100.00;101762.56;5032254;28;20090;-59
2022/10/13 02:22:56;;;;;;;31.02;21.20;;;;;;;10.02;100.00;101742.66;5031851;28;20022;-58
2022/10/13 02:25:22;;;;;;;31.52;20.23;;;;;;;10.10;100.00;101753.16;5032180;28;20026;-59
2022/10/13 02:27:47;;;;;;;30.23;20.60;;;;;;;10.12;100.00;101750.91;5031796;28;20061;-58
2022/10/13 02:30:21;;;;;;;28.83;20.02;;;;;;;10.07;100.00;101737.13;5031693;28;20095;-58
2022/10/13 02:32:46;;;;;;;30.58;20.92;;;;;;;10.14;100.00;101742.38;5030389;28;20385;-59
2022/10/13 02:35:12;;;;;;;29.08;20.25;;;;;;;10.14;100.00;101734.06;5031835;28;20021;-58
2022/10/13 02:37:37;;;;;;;28.42;20.00;;;;;;;10.15;100.00;101742.06;5031858;28;20148;-58
2022/10/13 02:40:03;;;;;;;30.92;19.80;;;;;;;10.16;100.00;101734.59;5031320;28;20036;-60
2022/10/13 02:42:28;;;;;;;29.10;19.92;;;;;;;10.19;100.00;101736.00;5031726;28;20056;-59
2022/10/13 02:44:53;;;;;;;29.55;19.80;;;;;;;10.18;100.00;101726.03;5031378;28;20379;-58
2022/10/13 02:47:19;;;;;;;29.80;19.60;;;;;;;10.19;100.00;101734.03;5031660;28;20124;-58
2022/10/13 02:49:44;;;;;;;28.98;19.20;;;;;;;10.20;100.00;101730.16;5031403;28;20440;-58
2022/10/13 02:52:09;;;;;;;29.30;19.95;;;;;;;10.22;100.00;101725.19;5031498;28;20021;-59
2022/10/13 02:54:34;;;;;;;27.77;19.95;;;;;;;10.24;100.00;101730.44;5030708;28;20079;-58
2022/10/13 02:57:00;;;;;;;30.92;20.20;;;;;;;10.26;100.00;101723.50;5031322;28;20362;-59
2022/10/13 02:59:25;;;;;;;29.35;20.52;;;;;;;10.30;100.00;101730.13;5030594;28;20025;-59
2022/10/13 03:01:50;;;;;;;29.98;19.58;;;;;;;10.32;100.00;101727.06;5030656;28;20025;-60
2022/10/13 03:04:15;;;;;;;31.02;18.92;;;;;;;10.28;100.00;101712.19;5031467;28;20199;-59
2022/10/13 03:06:41;;;;;;;27.23;18.88;;;;;;;10.36;100.00;101717.13;5031305;28;20108;-59
2022/10/13 03:09:06;;;;;;;29.55;20.38;;;;;;;10.37;100.00;101717.94;5030901;28;20482;-59
2022/10/13 03:11:31;;;;;;;30.52;19.45;;;;;;;10.38;100.00;101720.47;5031055;28;20025;-59
2022/10/13 03:13:57;;;;;;;29.23;20.00;;;;;;;10.37;100.00;101712.41;5030666;28;20056;-59
2022/10/13 03:16:22;;;;;;;29.33;19.25;;;;;;;10.36;100.00;101708.81;5030368;28;20036;-57
2022/10/13 03:18:47;;;;;;;28.38;19.20;;;;;;;10.37;100.00;101707.75;5031051;28;20374;-58
2022/10/13 03:21:13;;;;;;;29.15;19.90;;;;;;;10.37;100.00;101712.41;5030878;28;20065;-58
2022/10/13 03:23:38;;;;;;;27.92;18.90;;;;;;;10.35;100.00;101711.84;5031121;28;20113;-59
2022/10/13 03:26:04;;;;;;;30.23;20.38;;;;;;;10.37;100.00;101706.88;5031025;28;20404;-60
2022/10/13 03:28:29;;;;;;;28.30;19.60;;;;;;;10.35;100.00;101709.94;5029234;28;20124;-59
2022/10/13 03:31:07;;;;;;;30.05;19.33;;;;;;;10.31;100.00;101711.59;5030923;28;20029;-59
2022/10/13 03:33:33;;;;;;;28.20;19.45;;;;;;;10.37;100.00;101698.56;5030809;28;20038;-60
2022/10/13 03:36:03;;;;;;;28.13;19.55;;;;;;;10.34;100.00;101704.69;5030743;28;20029;-57
2022/10/13 03:38:30;;;;;;;29.98;19.75;;;;;;;10.44;100.00;101699.97;5030813;28;20059;-57
2022/10/13 03:40:55;;;;;;;28.60;19.08;;;;;;;10.48;100.00;101689.16;5031233;28;20025;-58
2022/10/13 03:43:21;;;;;;;29.65;18.73;;;;;;;10.50;100.00;101691.63;5030719;28;20359;-59
2022/10/13 03:45:57;;;;;;;31.35;19.35;;;;;;;10.52;100.00;101698.53;5030566;28;20073;-58
2022/10/13 03:48:22;;;;;;;30.42;19.60;;;;;;;10.54;100.00;101699.06;5030957;28;20044;-58
2022/10/13 03:50:48;;;;;;;27.77;19.15;;;;;;;10.55;100.00;101697.94;5031137;28;20382;-59
2022/10/13 03:53:14;;;;;;;28.77;19.60;;;;;;;10.55;100.00;101692.41;5029000;28;20112;-59
2022/10/13 03:55:39;;;;;;;29.77;19.65;;;;;;;10.58;100.00;101693.81;5030804;28;20113;-60
2022/10/13 03:58:04;;;;;;;28.30;19.38;;;;;;;10.57;100.00;101689.38;5031118;28;20030;-59
2022/10/13 04:00:30;;;;;;;28.30;19.15;;;;;;;10.58;100.00;101683.56;5029384;28;20408;-61
2022/10/13 04:02:55;;;;;;;30.40;18.92;;;;;;;10.58;100.00;101683.56;5030867;28;20033;-60
2022/10/13 04:05:20;;;;;;;25.80;19.35;;;;;;;10.51;100.00;101663.69;5030616;28;20115;-59
2022/10/13 04:07:46;;;;;;;31.10;19.95;;;;;;;10.58;100.00;101683.56;5023830;28;20034;-59
2022/10/13 04:10:11;;;;;;;28.92;19.48;;;;;;;10.60;100.00;101675.81;5010717;28;20030;-58
2022/10/13 04:12:36;;;;;;;28.38;18.83;;;;;;;10.64;100.00;101669.69;5010767;28;20379;-58
2022/10/13 04:15:03;;;;;;;29.40;20.08;;;;;;;10.66;100.00;101682.13;5010859;28;20153;-58
2022/10/13 04:17:28;;;;;;;30.45;19.90;;;;;;;10.68;100.00;101674.34;5010374;28;20041;-58
2022/10/13 04:19:54;;;;;;;27.33;18.95;;;;;;;10.66;100.00;101671.06;5010600;28;20030;-58
2022/10/13 04:22:19;;;;;;;28.30;19.80;;;;;;;10.67;100.00;101669.13;5010717;28;20105;-58
2022/10/13 04:24:44;;;;;;;28.58;19.38;;;;;;;10.67;100.00;101675.50;5010577;28;20025;-58
2022/10/13 04:27:10;;;;;;;28.08;18.83;;;;;;;10.68;100.00;101668.81;5010838;28;20040;-58
2022/10/13 04:29:35;;;;;;;27.52;18.90;;;;;;;10.68;100.00;101666.06;5014131;28;20018;-58
2022/10/13 04:32:00;;;;;;;29.67;19.33;;;;;;;10.67;100.00;101661.66;5013569;28;20088;-59
2022/10/13 04:34:26;;;;;;;28.90;19.58;;;;;;;10.68;100.00;101656.94;5013731;28;20224;-58
2022/10/13 04:36:51;;;;;;;29.08;19.48;;;;;;;10.68;100.00;101659.69;5013410;28;20043;-57
2022/10/13 04:39:17;;;;;;;30.98;20.30;;;;;;;10.68;100.00;101663.28;5013434;28;20040;-57
2022/10/13 04:41:42;;;;;;;30.17;19.38;;;;;;;10.67;100.00;101658.88;5013734;28;20022;-57
2022/10/13 04:44:07;;;;;;;27.95;19.23;;;;;;;10.67;100.00;101658.03;5013908;28;20056;-58
2022/10/13 04:46:33;;;;;;;30.25;19.65;;;;;;;10.68;100.00;101654.97;5013689;28;20046;-58
2022/10/13 04:48:58;;;;;;;28.63;19.77;;;;;;;10.69;100.00;101655.81;5014091;28;20121;-58
2022/10/13 04:51:25;;;;;;;29.33;20.63;;;;;;;10.71;100.00;101657.19;5013876;28;20057;-58
2022/10/13 04:53:59;;;;;;;28.02;19.45;;;;;;;10.72;100.00;101663.56;5013421;28;20567;-57
2022/10/13 04:56:26;;;;;;;30.20;20.42;;;;;;;10.72;100.00;101664.38;5014015;28;20105;-58
2022/10/13 04:58:51;;;;;;;29.60;19.85;;;;;;;10.70;100.00;101646.41;5013716;28;20156;-58
2022/10/13 05:01:20;;;;;;;29.05;19.05;;;;;;;10.68;100.00;101645.88;5014277;28;20034;-58
2022/10/13 05:03:46;;;;;;;29.05;20.55;;;;;;;10.67;100.00;101646.97;5013803;28;20077;-59
2022/10/13 05:06:20;;;;;;;26.48;19.40;;;;;;;10.61;100.00;101652.56;5013765;28;20465;-60
2022/10/13 05:08:45;;;;;;;;;;;;;;;10.68;100.00;101663.28;5014313;28;20096;-59
2022/10/13 05:11:10;;;;;;;29.17;19.80;;;;;;;10.68;100.00;101659.69;5013817;28;19913;-59
2022/10/13 05:13:36;;;;;;;29.95;20.20;;;;;;;10.59;100.00;101645.63;5013721;28;20292;-59
2022/10/13 05:16:10;;;;;;;27.50;19.48;;;;;;;10.63;100.00;101638.44;5013434;28;20398;-59
2022/10/13 05:18:36;;;;;;;29.70;19.70;;;;;;;10.61;100.00;101635.13;5013597;28;20121;-59
2022/10/13 05:21:06;;;;;;;33.28;20.80;;;;;;;10.60;100.00;101626.00;5013378;28;20021;-59
2022/10/13 05:23:32;;;;;;;28.75;20.08;;;;;;;10.58;100.00;101638.47;5001314;28;20069;-59
2022/10/13 05:26:01;;;;;;;27.52;19.02;;;;;;;10.56;100.00;101658.09;5012476;28;20056;-60
2022/10/13 05:28:26;;;;;;;30.15;19.33;;;;;;;10.55;100.00;101650.91;5013450;28;20091;-60
2022/10/13 05:30:51;;;;;;;28.25;19.65;;;;;;;10.54;100.00;101659.50;5013203;28;20497;-59
2022/10/13 05:33:17;;;;;;;29.40;20.33;;;;;;;10.53;100.00;101655.09;5013126;28;20034;-59
2022/10/13 05:35:42;;;;;;;30.05;20.08;;;;;;;10.50;100.00;101656.50;4995447;28;20033;-59
2022/10/13 05:38:07;;;;;;;31.00;21.05;;;;;;;10.50;100.00;101669.47;5013241;28;20022;-59
2022/10/13 05:40:32;;;;;;;30.60;19.58;;;;;;;10.50;100.00;101667.56;5012797;28;20034;-59
2022/10/13 05:42:58;;;;;;;30.10;19.98;;;;;;;10.49;100.00;101668.66;5013451;28;20034;-58
2022/10/13 05:45:26;;;;;;;28.48;19.95;;;;;;;10.48;100.00;101666.19;5013295;28;20046;-59
2022/10/13 05:47:51;;;;;;;30.30;20.67;;;;;;;10.50;100.00;101667.56;5013152;28;20343;-58
2022/10/13 05:50:18;;;;;;;30.13;19.83;;;;;;;10.50;100.00;101664.78;5012884;28;20114;-60
2022/10/13 05:52:44;;;;;;;29.70;20.42;;;;;;;10.50;100.00;101659.25;5013714;28;20037;-59
2022/10/13 05:55:11;;;;;;;32.97;20.80;;;;;;;10.50;100.00;101655.66;5013111;28;20037;-60
2022/10/13 05:57:41;;;;;;;28.42;19.90;;;;;;;10.49;100.00;101654.00;5013167;28;20029;-59
2022/10/13 06:00:15;;;;;;;27.95;19.90;;;;;;;10.46;100.00;101647.09;5012841;28;20033;-60
2022/10/13 06:02:55;;;;;;;28.88;20.45;;;;;;;10.43;100.00;101642.97;5012340;28;20028;-59
2022/10/13 06:05:24;;;;;;;29.25;20.00;;;;;;;10.45;100.00;101639.91;5013198;28;20120;-59
2022/10/13 06:07:49;;;;;;;31.17;20.02;;;;;;;10.45;100.00;101638.00;5013252;28;20493;-60
2022/10/13 06:10:15;;;;;;;30.85;21.38;;;;;;;10.47;100.00;101653.47;5012902;28;20029;-60
2022/10/13 06:12:40;;;;;;;30.13;21.05;;;;;;;10.46;100.00;101638.81;5012089;28;20064;-59
2022/10/13 06:15:06;;;;;;;29.65;20.67;;;;;;;10.48;100.00;101644.06;5012091;28;20470;-60
2022/10/13 06:17:35;;;;;;;30.77;21.30;;;;;;;10.48;100.00;101646.84;5012001;28;20080;-57
2022/10/13 06:20:00;;;;;;;31.67;21.13;;;;;;;10.48;100.00;101642.13;5010821;28;20034;-59
2022/10/13 06:22:26;;;;;;;31.92;21.00;;;;;;;10.50;100.00;101641.81;5011052;28;20100;-59
2022/10/13 06:24:51;;;;;;;32.83;21.75;;;;;;;10.52;100.00;101640.44;5011466;28;20419;-58
2022/10/13 06:27:16;;;;;;;34.00;22.08;;;;;;;10.55;100.00;101628.78;5012143;28;20072;-60
2022/10/13 06:29:42;;;;;;;33.95;22.48;;;;;;;10.55;100.00;101625.19;5011742;28;20026;-59
2022/10/13 06:32:07;;;;;;;33.10;22.65;;;;;;;10.58;100.00;101630.19;5011686;28;20026;-59
2022/10/13 06:34:32;;;;;;;31.13;20.42;;;;;;;10.60;100.00;101628.78;5012283;28;20029;-60
2022/10/13 06:36:57;;;;;;;31.77;21.25;;;;;;;10.62;100.00;101636.78;5012350;28;20455;-60
2022/10/13 06:39:23;;;;;;;30.90;20.92;;;;;;;10.64;100.00;101623.47;5012475;28;20037;-59
2022/10/13 06:41:48;;;;;;;30.13;20.20;;;;;;;10.68;100.00;101630.06;5012196;28;20048;-59
2022/10/13 06:44:14;;;;;;;32.30;21.40;;;;;;;10.71;100.00;101623.97;5011953;28;20141;-60
2022/10/13 06:46:39;;;;;;;33.25;20.80;;;;;;;10.74;100.00;101633.63;5012402;28;20017;-61
2022/10/13 06:49:04;;;;;;;30.25;20.60;;;;;;;10.80;100.00;101628.91;5012126;28;20045;-61
2022/10/13 06:51:30;;;;;;;30.83;20.48;;;;;;;10.83;100.00;101625.56;5012497;28;20021;-61
2022/10/13 06:53:56;;;;;;;32.47;20.38;;;;;;;10.85;100.00;101631.63;5012054;28;20029;-60
2022/10/13 06:56:22;;;;;;;31.90;21.33;;;;;;;10.87;100.00;101632.16;5012327;28;20045;-61
2022/10/13 06:58:47;;;;;;;31.35;20.23;;;;;;;10.91;100.00;101622.16;5012130;28;20026;-60
2022/10/13 07:01:13;;;;;;;30.27;20.45;;;;;;;10.96;100.00;101633.19;5011837;28;20056;-60
2022/10/13 07:03:38;;;;;;;30.98;20.45;;;;;;;10.99;100.00;101626.25;5012476;28;20116;-61
2022/10/13 07:06:05;;;;;;;29.60;20.48;;;;;;;11.01;100.00;101633.16;5012409;28;20057;-60
2022/10/13 07:08:31;;;;;;;32.60;21.10;;;;;;;11.03;100.00;101633.69;5012002;28;20052;-58
2022/10/13 07:10:57;;;;;;;29.95;19.65;;;;;;;11.06;100.00;101640.59;5012391;28;20132;-57
2022/10/13 07:13:22;;;;;;;29.95;20.38;;;;;;;11.07;100.00;101628.41;5011871;28;20109;-60
2022/10/13 07:15:48;;;;;;;34.63;21.60;;;;;;;11.08;100.00;101630.88;5011973;28;20057;-61
2022/10/13 07:18:13;;;;;;;31.02;20.25;;;;;;;11.12;100.00;101633.06;5011923;28;20032;-61
2022/10/13 07:20:39;;;;;;;32.13;21.02;;;;;;;11.13;100.00;101634.72;4993466;28;20022;-61
2022/10/13 07:23:04;;;;;;;32.45;21.90;;;;;;;11.16;100.00;101626.66;5015909;28;20029;-60
2022/10/13 07:25:30;;;;;;;30.60;21.02;;;;;;;11.18;100.00;101629.13;5010400;28;20030;-61
2022/10/13 07:27:57;;;;;;;32.22;21.15;;;;;;;11.12;100.00;101622.81;5010137;28;20100;-61
2022/10/13 07:30:22;;;;;;;31.45;21.13;;;;;;;11.21;100.00;101637.69;5010131;28;20052;-61
2022/10/13 07:32:48;;;;;;;30.67;21.88;;;;;;;11.23;100.00;101634.63;5009986;28;20526;-61
2022/10/13 07:35:13;;;;;;;32.25;21.73;;;;;;;11.27;100.00;101643.19;5010017;28;20030;-61
2022/10/13 07:37:38;;;;;;;32.40;22.17;;;;;;;11.29;100.00;101640.97;5010077;28;20367;-61
2022/10/13 07:40:05;;;;;;;33.83;22.67;;;;;;;11.33;100.00;101647.56;5009657;28;20029;-60
2022/10/13 07:42:30;;;;;;;33.95;22.80;;;;;;;11.32;100.00;101643.97;5009565;28;20057;-61
2022/10/13 07:44:56;;;;;;;33.00;21.98;;;;;;;11.35;100.00;101643.38;5009060;28;20081;-60
2022/10/13 07:47:22;;;;;;;30.27;21.10;;;;;;;11.36;100.00;101638.66;5009271;28;20026;-59
2022/10/13 07:49:47;;;;;;;33.25;21.80;;;;;;;11.41;100.00;101626.72;5009470;28;20022;-60
2022/10/13 07:52:12;;;;;;;34.78;22.42;;;;;;;11.45;100.00;101634.16;5009948;28;20442;-61
2022/10/13 07:54:38;;;;;;;33.03;22.40;;;;;;;11.47;100.00;101634.69;5008136;28;20091;-61
2022/10/13 07:57:03;;;;;;;32.97;22.15;;;;;;;11.51;100.00;101638.50;5009753;28;20034;-61
2022/10/13 07:59:32;;;;;;;33.42;22.25;;;;;;;11.49;100.00;101614.97;5009578;28;20025;-61
2022/10/13 08:01:59;;;;;;;37.75;23.23;;;;;;;11.61;100.00;101632.03;5009943;28;20033;-60
2022/10/13 08:04:27;;;;;;;34.65;23.55;;;;;;;11.68;100.00;101629.72;5013557;28;20092;-61
2022/10/13 08:06:53;;;;;;;33.50;21.52;;;;;;;11.77;100.00;101629.09;5013451;28;20331;-60
2022/10/13 08:09:18;;;;;;;31.40;22.45;;;;;;;11.84;100.00;101632.31;5013701;28;20025;-59
2022/10/13 08:11:43;;;;;;;33.13;21.80;;;;;;;11.95;100.00;101635.81;5013694;28;20034;-60
2022/10/13 08:14:10;;;;;;;32.28;21.48;;;;;;;12.02;99.56;101631.56;5013349;28;20033;-60
2022/10/13 08:16:38;;;;;;;33.20;21.83;;;;;;;12.09;99.48;101627.63;5013374;28;20105;-61
2022/10/13 08:19:04;;;;;;;31.77;20.73;;;;;;;12.20;98.95;101623.56;5013263;28;20030;-61
2022/10/13 08:21:29;;;;;;;31.63;21.38;;;;;;;12.28;98.47;101616.53;5013152;28;20036;-61
2022/10/13 08:23:55;;;;;;;31.67;21.73;;;;;;;12.37;97.92;101616.72;5013677;28;20105;-61
2022/10/13 08:26:23;;;;;;;31.52;20.92;;;;;;;12.44;97.30;101617.97;5013136;28;20030;-60
2022/10/13 08:28:49;;;;;;;32.45;21.25;;;;;;;12.51;97.00;101631.47;5013276;28;20443;-60
2022/10/13 08:31:14;;;;;;;29.55;20.05;;;;;;;12.52;96.52;101613.69;5013078;28;20040;-60
2022/10/13 08:33:40;;;;;;;30.40;21.27;;;;;;;12.58;96.52;101618.03;5012661;28;20471;-61
2022/10/13 08:36:07;;;;;;;31.25;20.70;;;;;;;12.66;96.34;101618.50;5012716;28;20040;-61
2022/10/13 08:38:32;;;;;;;30.63;20.33;;;;;;;12.70;95.26;101611.19;5012887;28;20417;-60
2022/10/13 08:40:58;;;;;;;28.80;19.80;;;;;;;12.75;94.94;101613.91;5012667;28;20063;-61
2022/10/13 08:43:24;;;;;;;32.22;20.13;;;;;;;12.79;94.04;101610.22;5012929;28;20133;-62
2022/10/13 08:45:54;;;;;;;31.58;20.38;;;;;;;12.83;94.07;101604.91;5012453;28;20141;-62
2022/10/13 08:48:46;;;;;;;32.92;20.30;;;;;;;12.91;94.14;101600.59;5012690;28;20030;-61
2022/10/13 08:51:14;;;;;;;30.05;20.25;;;;;;;12.88;93.14;101590.91;5006164;28;20105;-62
2022/10/13 08:53:43;;;;;;;28.50;19.90;;;;;;;12.97;92.92;101602.16;4991747;28;20057;-61
2022/10/13 08:56:26;;;;;;;29.30;18.85;;;;;;;13.03;92.33;101600.94;4992948;28;20743;-60
2022/10/13 08:58:53;;;;;;;30.05;18.48;;;;;;;13.11;91.36;101599.41;4992853;28;20369;-60
2022/10/13 09:01:27;;;;;;;28.10;19.15;;;;;;;13.16;91.21;101596.53;5004503;28;20528;-60
2022/10/13 09:03:54;;;;;;;;;;;;;;;13.31;92.50;101614.06;5013138;28;20037;-61
2022/10/13 09:06:36;;;;;;;30.42;19.52;;;;;;;13.24;90.68;101609.72;5013361;28;20032;-62
2022/10/13 09:09:05;;;;;;;29.98;20.20;;;;;;;13.27;90.95;101605.53;5011555;28;20037;-61
2022/10/13 09:11:35;;;;;;;34.17;19.90;;;;;;;13.22;90.00;101600.88;5011454;28;20041;-61
2022/10/13 09:14:26;;;;;;;28.60;19.17;;;;;;;13.32;90.69;101601.84;5010245;28;20108;-61
2022/10/13 09:16:52;;;;;;;28.40;19.15;;;;;;;13.33;90.16;101600.69;5011528;28;20038;-62
2022/10/13 09:19:35;;;;;;;31.83;19.58;;;;;;;13.28;90.58;101593.25;5011264;28;20125;-62
2022/10/13 09:22:36;;;;;;;28.25;19.70;;;;;;;13.36;90.56;101594.50;5011617;28;20030;-62
2022/10/13 09:25:19;;;;;;;30.60;21.00;;;;;;;13.22;90.15;101592.56;5010851;28;20037;-62
2022/10/13 09:27:56;;;;;;;31.60;20.37;;;;;;;13.26;90.92;101601.09;5011187;28;20044;-61
2022/10/13 09:30:48;;;;;;;32.88;20.40;;;;;;;13.17;90.69;101581.53;5011053;28;20445;-61
2022/10/13 09:33:20;;;;;;;28.33;19.52;;;;;;;13.16;90.69;101581.84;5011221;28;20030;-61
2022/10/13 09:35:48;;;;;;;29.95;19.70;;;;;;;13.13;91.04;101602.69;5011284;28;20474;-61
2022/10/13 09:38:18;;;;;;;31.23;19.98;;;;;;;13.10;91.33;101592.22;5011137;28;20034;-61
2022/10/13 09:41:09;;;;;;;31.25;19.55;;;;;;;13.16;91.27;101595.72;5010824;28;20111;-61
2022/10/13 09:43:46;;;;;;;28.98;19.05;;;;;;;13.20;91.88;101593.97;5011024;28;20030;-61
2022/10/13 09:46:25;;;;;;;29.35;19.88;;;;;;;13.18;91.33;101579.56;5010470;28;20595;-62
2022/10/13 09:48:55;;;;;;;29.38;20.23;;;;;;;13.25;90.39;101594.69;5011074;28;20061;-62
2022/10/13 09:51:35;;;;;;;30.02;20.92;;;;;;;13.27;91.06;101588.84;5010714;28;20046;-62
2022/10/13 09:54:00;;;;;;;30.83;20.75;;;;;;;13.27;90.70;101580.53;5008867;28;20041;-61
2022/10/13 09:56:41;;;;;;;30.52;19.20;;;;;;;13.29;90.64;101583.78;5010761;28;20029;-61
2022/10/13 09:59:19;;;;;;;29.23;19.20;;;;;;;13.29;89.78;101582.97;5010741;28;20041;-61
2022/10/13 10:01:46;;;;;;;30.00;20.10;;;;;;;13.27;89.98;101589.66;5010656;28;20077;-61
2022/10/13 10:04:16;;;;;;;30.38;20.38;;;;;;;13.19;90.52;101582.03;5010655;28;20080;-61
2022/10/13 10:06:44;;;;;;;33.03;20.75;;;;;;;13.22;90.54;101586.16;5010633;28;20085;-61
2022/10/13 10:09:31;;;;;;;30.83;20.83;;;;;;;13.17;90.58;101589.84;5010853;28;20034;-60
2022/10/13 10:11:58;;;;;;;31.10;19.23;;;;;;;13.06;90.08;101588.38;5010713;28;20038;-62
2022/10/13 10:14:25;;;;;;;30.33;20.83;;;;;;;12.99;90.95;101582.41;5010968;28;20061;-61
2022/10/13 10:17:00;;;;;;;29.10;20.48;;;;;;;12.94;92.60;101580.53;5010828;28;20070;-62
2022/10/13 10:19:42;;;;;;;29.42;19.63;;;;;;;12.89;94.00;101594.53;5009548;28;20110;-62
2022/10/13 10:22:22;;;;;;;29.40;19.63;;;;;;;12.87;95.15;101575.38;5010682;28;20120;-62
2022/10/13 10:25:15;;;;;;;31.73;21.20;;;;;;;12.88;96.70;101577.03;5010457;28;20391;-61
2022/10/13 10:28:08;;;;;;;32.33;21.23;;;;;;;12.88;97.10;101579.81;5010791;28;20036;-61
2022/10/13 10:30:41;;;;;;;32.10;21.17;;;;;;;12.87;97.50;101569.00;5010297;28;20041;-62
2022/10/13 10:33:12;;;;;;;33.00;21.88;;;;;;;12.89;97.92;101572.31;5010746;28;20120;-61
2022/10/13 10:35:56;;;;;;;30.02;21.27;;;;;;;12.94;98.81;101581.34;5008961;28;20030;-62
2022/10/13 10:38:43;;;;;;;28.92;20.98;;;;;;;12.91;98.64;101579.22;5009692;28;20033;-62
2022/10/13 10:41:30;;;;;;;29.70;20.67;;;;;;;12.84;98.31;101581.56;5009932;28;20468;-61
2022/10/13 10:44:06;;;;;;;30.17;20.73;;;;;;;12.71;98.82;101571.22;5009929;28;20028;-61
2022/10/13 10:46:37;;;;;;;29.73;22.13;;;;;;;12.70;100.00;101566.78;5008813;28;20131;-61
2022/10/13 10:49:14;;;;;;;31.50;21.58;;;;;;;12.68;100.00;101575.44;5009867;28;20061;-61
2022/10/13 10:51:39;;;;;;;30.10;22.10;;;;;;;12.66;100.00;101568.53;5009895;28;20029;-61
2022/10/13 10:54:30;;;;;;;30.75;21.88;;;;;;;12.66;100.00;101571.31;5008165;28;20410;-61
2022/10/13 10:57:04;;;;;;;33.42;22.30;;;;;;;12.59;100.00;101555.84;5008997;28;20030;-62
2022/10/13 10:59:51;;;;;;;30.95;23.02;;;;;;;12.66;100.00;101569.34;5008126;28;20554;-62
2022/10/13 11:02:53;;;;;;;31.63;22.80;;;;;;;12.71;100.00;101566.47;5008996;28;20030;-61
2022/10/13 11:05:18;;;;;;;30.08;21.85;;;;;;;12.74;100.00;101562.28;5009644;28;20076;-62
2022/10/13 11:07:46;;;;;;;30.83;21.60;;;;;;;12.80;100.00;101566.63;5009477;28;20445;-63
2022/10/13 11:10:11;;;;;;;31.50;21.42;;;;;;;12.84;100.00;101558.50;5009176;28;20038;-61
2022/10/13 11:12:52;;;;;;;30.43;22.07;;;;;;;12.89;100.00;101556.47;5009360;28;20103;-62
2022/10/13 11:15:36;;;;;;;30.40;21.25;;;;;;;12.93;100.00;101559.44;5006439;28;20284;-62
2022/10/13 11:18:21;;;;;;;;;;;;;;;13.00;100.00;101559.06;5009465;28;20065;-61